createdAt,value
2018-10-18T00:02:23.830Z,20.88
2018-10-18T00:07:18.572Z,21.52
2018-10-18T00:12:15.245Z,21.05
2018-10-18T00:17:14.261Z,20.57
2018-10-18T00:22:13.640Z,17.92
2018-10-18T00:27:11.046Z,19.50
2018-10-18T00:32:06.082Z,21.00
2018-10-18T00:47:06.159Z,20.48
2018-10-18T00:52:02.197Z,19.40
2018-10-18T00:56:58.643Z,19.17
2018-10-18T01:01:53.340Z,20.12
2018-10-18T01:06:50.113Z,17.67
2018-10-18T01:11:45.447Z,21.65
2018-10-18T01:16:41.717Z,18.42
2018-10-18T01:21:36.905Z,20.97
2018-10-18T01:26:31.652Z,17.02
2018-10-18T01:31:25.893Z,19.65
2018-10-18T01:36:21.449Z,23.90
2018-10-18T01:41:17.379Z,18.02
2018-10-18T01:46:18.037Z,19.73
2018-10-18T01:51:14.323Z,22.07
2018-10-18T01:56:08.727Z,18.02
2018-10-18T02:01:03.619Z,20.30
2018-10-18T02:05:59.685Z,21.68
2018-10-18T02:10:55.609Z,23.87
2018-10-18T02:15:48.905Z,19.98
2018-10-18T02:20:52.352Z,20.90
2018-10-18T02:25:49.397Z,20.12
2018-10-18T02:30:46.160Z,19.90
2018-10-18T02:35:44.179Z,19.48
2018-10-18T02:40:43.517Z,20.70
2018-10-18T02:45:41.308Z,21.93
2018-10-18T02:50:36.597Z,20.17
2018-10-18T02:55:31.822Z,21.77
2018-10-18T03:00:28.628Z,22.73
2018-10-18T03:10:25.386Z,20.90
2018-10-18T03:15:18.599Z,21.02
2018-10-18T03:20:17.756Z,23.00
2018-10-18T03:25:11.138Z,25.48
2018-10-18T03:30:04.784Z,23.92
2018-10-18T03:34:57.959Z,28.20
2018-10-18T03:39:51.183Z,31.35
2018-10-18T03:44:44.559Z,29.92
2018-10-18T03:49:37.954Z,29.07
2018-10-18T03:54:31.291Z,34.67
2018-10-18T03:59:24.545Z,31.37
2018-10-18T04:04:17.866Z,31.80
2018-10-18T04:09:11.048Z,40.98
2018-10-18T04:14:04.411Z,39.65
2018-10-18T04:18:57.768Z,42.35
2018-10-18T04:23:51.239Z,38.48
2018-10-18T04:28:44.615Z,40.92
2018-10-18T04:33:37.893Z,33.92
2018-10-18T04:38:31.124Z,37.70
2018-10-18T04:43:24.461Z,37.88
2018-10-18T04:48:19.963Z,38.53
2018-10-18T04:53:13.125Z,31.12
2018-10-18T04:58:06.549Z,32.75
2018-10-18T05:02:59.851Z,31.05
2018-10-18T05:07:53.085Z,22.80
2018-10-18T05:12:46.734Z,26.33
2018-10-18T05:17:39.976Z,24.80
2018-10-18T05:22:33.363Z,26.87
2018-10-18T05:27:26.776Z,29.48
2018-10-18T05:32:20.296Z,29.35
2018-10-18T05:37:13.629Z,34.23
2018-10-18T05:42:06.925Z,35.95
2018-10-18T05:47:00.147Z,60.60
2018-10-18T05:51:53.335Z,45.35
2018-10-18T05:56:46.648Z,45.35
2018-10-18T06:01:39.846Z,47.95
2018-10-18T06:06:33.185Z,48.05
2018-10-18T06:11:31.035Z,45.83
2018-10-18T06:16:25.452Z,35.38
2018-10-18T06:21:18.676Z,34.43
2018-10-18T06:26:12.109Z,30.88
2018-10-18T06:31:05.665Z,25.55
2018-10-18T06:35:59.068Z,20.97
2018-10-18T06:40:52.362Z,19.48
2018-10-18T06:45:45.677Z,20.20
2018-10-18T06:50:39.948Z,19.48
2018-10-18T06:55:33.157Z,23.60
2018-10-18T07:00:26.479Z,23.45
2018-10-18T07:05:19.759Z,21.68
2018-10-18T07:10:13.229Z,23.67
2018-10-18T07:15:07.543Z,24.35
2018-10-18T07:20:00.939Z,24.05
2018-10-18T07:24:54.184Z,22.58
2018-10-18T07:29:47.461Z,21.87
2018-10-18T07:34:40.720Z,23.35
2018-10-18T07:39:33.955Z,25.55
2018-10-18T07:44:27.729Z,26.97
2018-10-18T07:49:20.950Z,28.98
2018-10-18T07:54:14.215Z,26.33
2018-10-18T07:59:07.402Z,20.65
2018-10-18T08:04:00.704Z,23.52
2018-10-18T08:08:53.939Z,22.50
2018-10-18T08:13:47.245Z,26.93
2018-10-18T08:18:41.558Z,21.85
2018-10-18T08:23:34.889Z,20.90
2018-10-18T08:28:28.213Z,21.05
2018-10-18T08:33:22.591Z,21.20
2018-10-18T08:38:16.355Z,22.93
2018-10-18T08:43:09.597Z,22.85
2018-10-18T08:48:02.925Z,20.97
2018-10-18T08:52:56.108Z,24.30
2018-10-18T08:57:49.454Z,22.35
2018-10-18T09:02:42.985Z,21.42
2018-10-18T09:07:36.626Z,22.77
2018-10-18T09:12:29.824Z,20.05
2018-10-18T09:17:23.098Z,22.27
2018-10-18T09:22:16.383Z,20.68
2018-10-18T09:27:10.067Z,23.70
2018-10-18T09:32:03.376Z,22.13
2018-10-18T09:36:56.911Z,24.32
2018-10-18T09:41:50.083Z,20.67
2018-10-18T09:46:43.266Z,20.52
2018-10-18T09:51:36.604Z,19.92
2018-10-18T09:56:30.680Z,22.65
2018-10-18T10:01:29.219Z,22.75
2018-10-18T10:06:22.546Z,21.07
2018-10-18T10:11:15.812Z,23.75
2018-10-18T10:16:09.158Z,19.70
2018-10-18T10:21:02.468Z,20.60
2018-10-18T10:25:56.022Z,22.13
2018-10-18T10:30:49.370Z,22.75
2018-10-18T10:35:42.697Z,22.32
2018-10-18T10:40:35.935Z,22.80
2018-10-18T10:45:29.325Z,21.90
2018-10-18T10:50:22.575Z,25.62
2018-10-18T10:55:15.763Z,26.12
2018-10-18T11:00:09.141Z,23.32
2018-10-18T11:05:02.429Z,25.97
2018-10-18T11:09:55.626Z,27.02
2018-10-18T11:14:48.926Z,28.73
2018-10-18T11:19:42.096Z,26.60
2018-10-18T11:24:35.543Z,29.60
2018-10-18T11:29:28.802Z,28.30
2018-10-18T11:34:22.146Z,26.45
2018-10-18T11:39:15.329Z,25.82
2018-10-18T11:44:13.880Z,25.60
2018-10-18T11:49:07.498Z,26.50
2018-10-18T11:54:02.815Z,25.17
2018-10-18T11:58:58.012Z,23.05
2018-10-18T12:03:54.857Z,21.93
2018-10-18T12:08:52.425Z,23.35
2018-10-18T12:13:56.023Z,24.25
2018-10-18T12:18:49.167Z,24.65
2018-10-18T12:23:42.366Z,23.75
2018-10-18T12:28:35.698Z,24.35
2018-10-18T12:33:29.024Z,24.35
2018-10-18T12:38:22.400Z,23.65
2018-10-18T12:43:15.568Z,24.20
2018-10-18T12:48:08.828Z,27.77
2018-10-18T12:53:02.080Z,23.77
2018-10-18T12:57:55.378Z,21.82
2018-10-18T13:02:49.667Z,25.32
2018-10-18T13:07:43.163Z,24.87
2018-10-18T13:12:37.262Z,22.73
2018-10-18T13:17:30.582Z,22.10
2018-10-18T13:22:26.313Z,23.30
2018-10-18T13:27:20.434Z,21.85
2018-10-18T13:32:14.713Z,23.22
2018-10-18T13:37:07.890Z,23.57
2018-10-18T13:42:01.399Z,24.75
2018-10-18T13:46:55.243Z,19.95
2018-10-18T13:51:50.533Z,23.45
